sensor_id;sensor_type;location;lat;lon;timestamp;P1;durP1;ratioP1;P2;durP2;ratioP2
5871;SDS011;2962;51.312;7.378;2023-02-26T00:02:21;6.63;;;3.03;;
5871;SDS011;2962;51.312;7.378;2023-02-26T00:04:46;8.33;;;3.50;;
5871;SDS011;2962;51.312;7.378;2023-02-26T00:07:11;10.07;;;3.93;;
5871;SDS011;2962;51.312;7.378;2023-02-26T00:09:36;7.80;;;4.10;;
5871;SDS011;2962;51.312;7.378;2023-02-26T00:12:02;6.63;;;1.50;;
5871;SDS011;2962;51.312;7.378;2023-02-26T00:14:27;3.70;;;2.00;;
5871;SDS011;2962;51.312;7.378;2023-02-26T00:16:56;6.10;;;2.10;;
5871;SDS011;2962;51.312;7.378;2023-02-26T00:19:37;4.53;;;2.00;;
5871;SDS011;2962;51.312;7.378;2023-02-26T00:22:03;3.60;;;1.50;;
5871;SDS011;2962;51.312;7.378;2023-02-26T00:24:28;2.23;;;1.77;;
5871;SDS011;2962;51.312;7.378;2023-02-26T00:26:53;1.50;;;1.50;;
5871;SDS011;2962;51.312;7.378;2023-02-26T00:29:19;1.93;;;1.60;;
5871;SDS011;2962;51.312;7.378;2023-02-26T00:31:44;4.20;;;1.40;;
5871;SDS011;2962;51.312;7.378;2023-02-26T00:34:10;4.70;;;1.83;;
5871;SDS011;2962;51.312;7.378;2023-02-26T00:42:06;3.10;;;2.90;;
5871;SDS011;2962;51.312;7.378;2023-02-26T00:44:32;2.40;;;1.27;;
5871;SDS011;2962;51.312;7.378;2023-02-26T00:46:59;2.83;;;1.30;;
5871;SDS011;2962;51.312;7.378;2023-02-26T00:55:16;8.50;;;1.13;;
5871;SDS011;2962;51.312;7.378;2023-02-26T00:57:42;4.43;;;1.27;;
5871;SDS011;2962;51.312;7.378;2023-02-26T01:00:07;1.60;;;0.90;;
5871;SDS011;2962;51.312;7.378;2023-02-26T01:02:34;0.93;;;0.93;;
5871;SDS011;2962;51.312;7.378;2023-02-26T01:05:00;1.30;;;1.10;;
5871;SDS011;2962;51.312;7.378;2023-02-26T01:07:25;2.73;;;1.40;;
5871;SDS011;2962;51.312;7.378;2023-02-26T01:09:52;2.28;;;1.10;;
5871;SDS011;2962;51.312;7.378;2023-02-26T01:12:18;1.73;;;0.87;;
5871;SDS011;2962;51.312;7.378;2023-02-26T01:14:44;3.53;;;1.17;;
5871;SDS011;2962;51.312;7.378;2023-02-26T01:20:33;5.75;;;1.20;;
5871;SDS011;2962;51.312;7.378;2023-02-26T01:25:13;3.33;;;1.23;;
5871;SDS011;2962;51.312;7.378;2023-02-26T01:27:42;1.45;;;1.10;;
5871;SDS011;2962;51.312;7.378;2023-02-26T01:30:07;3.80;;;3.20;;
5871;SDS011;2962;51.312;7.378;2023-02-26T01:35:20;2.08;;;1.45;;
5871;SDS011;2962;51.312;7.378;2023-02-26T01:38:02;6.13;;;1.20;;
5871;SDS011;2962;51.312;7.378;2023-02-26T01:43:42;2.85;;;1.83;;
5871;SDS011;2962;51.312;7.378;2023-02-26T01:46:17;1.80;;;0.93;;
5871;SDS011;2962;51.312;7.378;2023-02-26T01:48:53;1.00;;;1.00;;
5871;SDS011;2962;51.312;7.378;2023-02-26T01:51:41;4.15;;;1.27;;
5871;SDS011;2962;51.312;7.378;2023-02-26T01:54:15;3.05;;;1.58;;
5871;SDS011;2962;51.312;7.378;2023-02-26T01:56:42;4.72;;;1.45;;
5871;SDS011;2962;51.312;7.378;2023-02-26T01:59:12;2.17;;;1.50;;
5871;SDS011;2962;51.312;7.378;2023-02-26T02:01:40;11.55;;;1.73;;
5871;SDS011;2962;51.312;7.378;2023-02-26T02:04:06;3.10;;;1.40;;
5871;SDS011;2962;51.312;7.378;2023-02-26T02:06:36;3.90;;;1.50;;
5871;SDS011;2962;51.312;7.378;2023-02-26T02:09:04;1.00;;;1.00;;
5871;SDS011;2962;51.312;7.378;2023-02-26T02:11:31;6.88;;;1.40;;
5871;SDS011;2962;51.312;7.378;2023-02-26T02:28:02;4.68;;;1.20;;
5871;SDS011;2962;51.312;7.378;2023-02-26T02:33:19;0.80;;;0.80;;
5871;SDS011;2962;51.312;7.378;2023-02-26T02:36:01;2.28;;;1.10;;
5871;SDS011;2962;51.312;7.378;2023-02-26T02:38:44;5.68;;;2.75;;
5871;SDS011;2962;51.312;7.378;2023-02-26T02:41:22;4.18;;;1.25;;
5871;SDS011;2962;51.312;7.378;2023-02-26T02:43:51;3.75;;;1.67;;
5871;SDS011;2962;51.312;7.378;2023-02-26T02:46:23;4.40;;;1.90;;
5871;SDS011;2962;51.312;7.378;2023-02-26T02:48:57;4.93;;;1.55;;
5871;SDS011;2962;51.312;7.378;2023-02-26T02:51:29;0.85;;;0.85;;
5871;SDS011;2962;51.312;7.378;2023-02-26T02:54:12;2.85;;;1.02;;
5871;SDS011;2962;51.312;7.378;2023-02-26T02:56:43;2.25;;;1.20;;
5871;SDS011;2962;51.312;7.378;2023-02-26T02:59:18;2.90;;;1.52;;
5871;SDS011;2962;51.312;7.378;2023-02-26T03:01:53;4.20;;;1.02;;
5871;SDS011;2962;51.312;7.378;2023-02-26T03:04:34;3.08;;;0.93;;
5871;SDS011;2962;51.312;7.378;2023-02-26T03:07:00;8.73;;;0.90;;
5871;SDS011;2962;51.312;7.378;2023-02-26T03:09:25;1.53;;;1.40;;
5871;SDS011;2962;51.312;7.378;2023-02-26T03:11:51;4.20;;;1.47;;
5871;SDS011;2962;51.312;7.378;2023-02-26T03:14:16;3.20;;;1.10;;
5871;SDS011;2962;51.312;7.378;2023-02-26T03:19:30;1.58;;;0.63;;
5871;SDS011;2962;51.312;7.378;2023-02-26T03:22:14;1.05;;;0.95;;
5871;SDS011;2962;51.312;7.378;2023-02-26T03:27:33;1.50;;;1.00;;
5871;SDS011;2962;51.312;7.378;2023-02-26T03:35:13;5.47;;;1.08;;
5871;SDS011;2962;51.312;7.378;2023-02-26T03:37:47;7.43;;;1.27;;
5871;SDS011;2962;51.312;7.378;2023-02-26T03:40:20;2.35;;;0.70;;
5871;SDS011;2962;51.312;7.378;2023-02-26T03:42:52;0.80;;;0.77;;
5871;SDS011;2962;51.312;7.378;2023-02-26T03:45:27;0.90;;;0.90;;
5871;SDS011;2962;51.312;7.378;2023-02-26T03:47:54;4.70;;;0.85;;
5871;SDS011;2962;51.312;7.378;2023-02-26T03:50:28;4.60;;;1.00;;
5871;SDS011;2962;51.312;7.378;2023-02-26T03:52:55;1.30;;;0.80;;
5871;SDS011;2962;51.312;7.378;2023-02-26T03:55:43;4.43;;;0.68;;
5871;SDS011;2962;51.312;7.378;2023-02-26T03:58:13;1.33;;;0.70;;
5871;SDS011;2962;51.312;7.378;2023-02-26T04:00:39;3.13;;;0.80;;
5871;SDS011;2962;51.312;7.378;2023-02-26T04:03:07;2.75;;;0.60;;
5871;SDS011;2962;51.312;7.378;2023-02-26T04:05:54;3.70;;;0.90;;
5871;SDS011;2962;51.312;7.378;2023-02-26T04:08:20;6.53;;;1.00;;
5871;SDS011;2962;51.312;7.378;2023-02-26T04:10:50;4.88;;;0.70;;
5871;SDS011;2962;51.312;7.378;2023-02-26T04:13:18;5.07;;;0.82;;
5871;SDS011;2962;51.312;7.378;2023-02-26T04:15:44;2.83;;;0.83;;
5871;SDS011;2962;51.312;7.378;2023-02-26T04:18:09;1.23;;;0.63;;
5871;SDS011;2962;51.312;7.378;2023-02-26T04:20:34;1.80;;;0.93;;
5871;SDS011;2962;51.312;7.378;2023-02-26T04:23:00;0.83;;;0.80;;
5871;SDS011;2962;51.312;7.378;2023-02-26T04:25:25;1.10;;;0.80;;
5871;SDS011;2962;51.312;7.378;2023-02-26T04:27:50;2.10;;;1.30;;
5871;SDS011;2962;51.312;7.378;2023-02-26T04:30:16;4.53;;;0.70;;
5871;SDS011;2962;51.312;7.378;2023-02-26T04:32:41;0.77;;;0.77;;
5871;SDS011;2962;51.312;7.378;2023-02-26T04:35:06;1.17;;;0.80;;
5871;SDS011;2962;51.312;7.378;2023-02-26T04:37:32;0.73;;;0.73;;
5871;SDS011;2962;51.312;7.378;2023-02-26T04:39:57;1.93;;;1.00;;
5871;SDS011;2962;51.312;7.378;2023-02-26T04:42:23;0.83;;;0.83;;
5871;SDS011;2962;51.312;7.378;2023-02-26T04:44:48;3.93;;;0.93;;
5871;SDS011;2962;51.312;7.378;2023-02-26T04:47:13;1.80;;;1.10;;
5871;SDS011;2962;51.312;7.378;2023-02-26T04:49:39;3.77;;;1.20;;
5871;SDS011;2962;51.312;7.378;2023-02-26T04:52:04;0.70;;;0.70;;
5871;SDS011;2962;51.312;7.378;2023-02-26T04:54:29;3.33;;;0.80;;
5871;SDS011;2962;51.312;7.378;2023-02-26T04:56:54;3.63;;;1.30;;
5871;SDS011;2962;51.312;7.378;2023-02-26T04:59:20;5.40;;;1.00;;
5871;SDS011;2962;51.312;7.378;2023-02-26T05:01:45;3.70;;;1.33;;
5871;SDS011;2962;51.312;7.378;2023-02-26T05:04:10;4.60;;;1.10;;
5871;SDS011;2962;51.312;7.378;2023-02-26T05:06:36;1.00;;;1.00;;
5871;SDS011;2962;51.312;7.378;2023-02-26T05:09:01;0.87;;;0.80;;
5871;SDS011;2962;51.312;7.378;2023-02-26T05:11:26;4.77;;;1.03;;
5871;SDS011;2962;51.312;7.378;2023-02-26T05:13:52;1.20;;;1.20;;
5871;SDS011;2962;51.312;7.378;2023-02-26T05:16:17;1.40;;;1.20;;
5871;SDS011;2962;51.312;7.378;2023-02-26T05:18:42;2.97;;;1.40;;
5871;SDS011;2962;51.312;7.378;2023-02-26T05:21:07;2.10;;;1.37;;
5871;SDS011;2962;51.312;7.378;2023-02-26T05:23:33;3.20;;;1.00;;
5871;SDS011;2962;51.312;7.378;2023-02-26T05:25:58;4.30;;;0.90;;
5871;SDS011;2962;51.312;7.378;2023-02-26T05:28:24;1.30;;;1.30;;
5871;SDS011;2962;51.312;7.378;2023-02-26T05:30:50;2.25;;;1.17;;
5871;SDS011;2962;51.312;7.378;2023-02-26T05:33:16;0.90;;;0.90;;
5871;SDS011;2962;51.312;7.378;2023-02-26T05:35:41;0.87;;;0.83;;
5871;SDS011;2962;51.312;7.378;2023-02-26T05:38:06;2.47;;;1.47;;
5871;SDS011;2962;51.312;7.378;2023-02-26T05:40:32;2.20;;;1.60;;
5871;SDS011;2962;51.312;7.378;2023-02-26T05:42:57;1.33;;;1.23;;
5871;SDS011;2962;51.312;7.378;2023-02-26T05:45:22;2.40;;;1.10;;
5871;SDS011;2962;51.312;7.378;2023-02-26T05:47:47;1.20;;;1.20;;
5871;SDS011;2962;51.312;7.378;2023-02-26T05:50:13;1.33;;;1.00;;
5871;SDS011;2962;51.312;7.378;2023-02-26T05:52:38;13.00;;;1.30;;
5871;SDS011;2962;51.312;7.378;2023-02-26T05:55:03;6.80;;;1.43;;
5871;SDS011;2962;51.312;7.378;2023-02-26T05:57:29;1.23;;;0.87;;
5871;SDS011;2962;51.312;7.378;2023-02-26T05:59:55;2.83;;;1.00;;
5871;SDS011;2962;51.312;7.378;2023-02-26T06:02:20;5.00;;;1.67;;
5871;SDS011;2962;51.312;7.378;2023-02-26T06:04:46;2.03;;;1.87;;
5871;SDS011;2962;51.312;7.378;2023-02-26T06:07:11;1.47;;;1.23;;
5871;SDS011;2962;51.312;7.378;2023-02-26T06:09:37;1.30;;;1.30;;
5871;SDS011;2962;51.312;7.378;2023-02-26T06:12:02;10.40;;;1.90;;
5871;SDS011;2962;51.312;7.378;2023-02-26T06:14:27;2.20;;;1.27;;
5871;SDS011;2962;51.312;7.378;2023-02-26T06:16:54;3.88;;;1.80;;
5871;SDS011;2962;51.312;7.378;2023-02-26T06:19:19;2.90;;;1.40;;
5871;SDS011;2962;51.312;7.378;2023-02-26T06:21:45;1.77;;;1.42;;
5871;SDS011;2962;51.312;7.378;2023-02-26T06:24:11;1.10;;;1.10;;
5871;SDS011;2962;51.312;7.378;2023-02-26T06:26:36;4.20;;;1.40;;
5871;SDS011;2962;51.312;7.378;2023-02-26T06:29:01;3.07;;;0.90;;
5871;SDS011;2962;51.312;7.378;2023-02-26T06:31:27;4.70;;;1.60;;
5871;SDS011;2962;51.312;7.378;2023-02-26T06:33:52;1.87;;;1.07;;
5871;SDS011;2962;51.312;7.378;2023-02-26T06:36:18;1.50;;;1.50;;
5871;SDS011;2962;51.312;7.378;2023-02-26T06:38:43;2.73;;;0.93;;
5871;SDS011;2962;51.312;7.378;2023-02-26T06:41:09;1.50;;;1.40;;
5871;SDS011;2962;51.312;7.378;2023-02-26T06:43:35;7.93;;;1.23;;
5871;SDS011;2962;51.312;7.378;2023-02-26T06:46:00;3.93;;;1.00;;
5871;SDS011;2962;51.312;7.378;2023-02-26T06:48:25;2.10;;;1.60;;
5871;SDS011;2962;51.312;7.378;2023-02-26T06:50:51;8.23;;;1.40;;
5871;SDS011;2962;51.312;7.378;2023-02-26T06:53:16;1.60;;;1.50;;
5871;SDS011;2962;51.312;7.378;2023-02-26T06:55:45;1.70;;;1.60;;
5871;SDS011;2962;51.312;7.378;2023-02-26T06:58:11;4.25;;;1.20;;
5871;SDS011;2962;51.312;7.378;2023-02-26T07:00:37;4.38;;;1.00;;
5871;SDS011;2962;51.312;7.378;2023-02-26T07:03:03;3.50;;;1.37;;
5871;SDS011;2962;51.312;7.378;2023-02-26T07:05:29;2.92;;;1.30;;
5871;SDS011;2962;51.312;7.378;2023-02-26T07:07:54;3.53;;;1.53;;
5871;SDS011;2962;51.312;7.378;2023-02-26T07:10:19;3.83;;;1.50;;
5871;SDS011;2962;51.312;7.378;2023-02-26T07:12:49;1.30;;;1.17;;
5871;SDS011;2962;51.312;7.378;2023-02-26T07:15:15;1.40;;;1.30;;
5871;SDS011;2962;51.312;7.378;2023-02-26T07:17:40;4.83;;;1.37;;
5871;SDS011;2962;51.312;7.378;2023-02-26T07:20:05;1.17;;;1.00;;
5871;SDS011;2962;51.312;7.378;2023-02-26T07:22:34;5.55;;;1.40;;
5871;SDS011;2962;51.312;7.378;2023-02-26T07:25:00;3.00;;;1.45;;
5871;SDS011;2962;51.312;7.378;2023-02-26T07:27:25;3.53;;;1.40;;
5871;SDS011;2962;51.312;7.378;2023-02-26T07:29:51;5.43;;;1.53;;
5871;SDS011;2962;51.312;7.378;2023-02-26T07:32:16;0.97;;;0.97;;
5871;SDS011;2962;51.312;7.378;2023-02-26T07:34:41;1.50;;;1.40;;
5871;SDS011;2962;51.312;7.378;2023-02-26T07:37:06;11.10;;;1.00;;
5871;SDS011;2962;51.312;7.378;2023-02-26T07:39:32;2.00;;;1.23;;
5871;SDS011;2962;51.312;7.378;2023-02-26T07:41:57;1.30;;;1.20;;
5871;SDS011;2962;51.312;7.378;2023-02-26T07:44:22;2.10;;;1.10;;
5871;SDS011;2962;51.312;7.378;2023-02-26T07:46:48;1.17;;;1.17;;
5871;SDS011;2962;51.312;7.378;2023-02-26T07:49:13;3.60;;;0.93;;
5871;SDS011;2962;51.312;7.378;2023-02-26T07:51:39;5.50;;;1.43;;
5871;SDS011;2962;51.312;7.378;2023-02-26T07:54:06;4.75;;;1.55;;
5871;SDS011;2962;51.312;7.378;2023-02-26T07:56:31;3.33;;;2.27;;
5871;SDS011;2962;51.312;7.378;2023-02-26T07:58:57;5.10;;;1.90;;
5871;SDS011;2962;51.312;7.378;2023-02-26T08:01:22;2.33;;;2.03;;
5871;SDS011;2962;51.312;7.378;2023-02-26T08:03:47;2.27;;;1.60;;
5871;SDS011;2962;51.312;7.378;2023-02-26T08:06:13;2.20;;;1.77;;
5871;SDS011;2962;51.312;7.378;2023-02-26T08:08:38;2.03;;;1.93;;
5871;SDS011;2962;51.312;7.378;2023-02-26T08:11:03;3.57;;;2.30;;
5871;SDS011;2962;51.312;7.378;2023-02-26T08:13:28;4.30;;;1.33;;
5871;SDS011;2962;51.312;7.378;2023-02-26T08:15:54;1.30;;;1.20;;
5871;SDS011;2962;51.312;7.378;2023-02-26T08:18:19;1.63;;;1.30;;
5871;SDS011;2962;51.312;7.378;2023-02-26T08:20:45;2.37;;;1.13;;
5871;SDS011;2962;51.312;7.378;2023-02-26T08:23:10;1.97;;;1.80;;
5871;SDS011;2962;51.312;7.378;2023-02-26T08:25:35;3.27;;;1.67;;
5871;SDS011;2962;51.312;7.378;2023-02-26T08:28:00;2.90;;;1.17;;
5871;SDS011;2962;51.312;7.378;2023-02-26T08:30:27;1.60;;;1.60;;
5871;SDS011;2962;51.312;7.378;2023-02-26T08:32:53;3.47;;;1.33;;
5871;SDS011;2962;51.312;7.378;2023-02-26T08:35:18;1.67;;;1.13;;
5871;SDS011;2962;51.312;7.378;2023-02-26T08:37:43;1.40;;;1.10;;
5871;SDS011;2962;51.312;7.378;2023-02-26T08:40:09;0.93;;;0.93;;
5871;SDS011;2962;51.312;7.378;2023-02-26T08:42:34;2.93;;;1.60;;
5871;SDS011;2962;51.312;7.378;2023-02-26T08:45:00;0.90;;;0.90;;
5871;SDS011;2962;51.312;7.378;2023-02-26T08:47:25;2.60;;;0.97;;
5871;SDS011;2962;51.312;7.378;2023-02-26T08:49:51;2.63;;;1.43;;
5871;SDS011;2962;51.312;7.378;2023-02-26T08:52:16;1.10;;;1.10;;
5871;SDS011;2962;51.312;7.378;2023-02-26T08:54:42;0.90;;;0.90;;
5871;SDS011;2962;51.312;7.378;2023-02-26T08:57:07;1.20;;;0.60;;
5871;SDS011;2962;51.312;7.378;2023-02-26T08:59:32;1.13;;;1.13;;
5871;SDS011;2962;51.312;7.378;2023-02-26T09:01:57;0.90;;;0.90;;
5871;SDS011;2962;51.312;7.378;2023-02-26T09:04:23;4.83;;;1.00;;
5871;SDS011;2962;51.312;7.378;2023-02-26T09:06:48;2.00;;;0.90;;
5871;SDS011;2962;51.312;7.378;2023-02-26T09:09:13;1.93;;;0.70;;
5871;SDS011;2962;51.312;7.378;2023-02-26T09:11:39;2.90;;;2.00;;
5871;SDS011;2962;51.312;7.378;2023-02-26T09:14:04;0.60;;;0.60;;
5871;SDS011;2962;51.312;7.378;2023-02-26T09:16:32;0.97;;;0.97;;
5871;SDS011;2962;51.312;7.378;2023-02-26T09:19:00;0.80;;;0.80;;
5871;SDS011;2962;51.312;7.378;2023-02-26T09:21:29;1.38;;;0.45;;
5871;SDS011;2962;51.312;7.378;2023-02-26T09:23:55;1.77;;;0.83;;
5871;SDS011;2962;51.312;7.378;2023-02-26T09:26:20;1.47;;;0.80;;
5871;SDS011;2962;51.312;7.378;2023-02-26T09:28:46;2.57;;;1.10;;
5871;SDS011;2962;51.312;7.378;2023-02-26T09:31:11;1.23;;;1.00;;
5871;SDS011;2962;51.312;7.378;2023-02-26T09:33:37;1.23;;;0.90;;
5871;SDS011;2962;51.312;7.378;2023-02-26T09:36:02;1.40;;;0.70;;
5871;SDS011;2962;51.312;7.378;2023-02-26T09:38:28;1.40;;;0.63;;
5871;SDS011;2962;51.312;7.378;2023-02-26T09:41:01;1.80;;;0.60;;
5871;SDS011;2962;51.312;7.378;2023-02-26T09:46:29;0.52;;;0.52;;
5871;SDS011;2962;51.312;7.378;2023-02-26T09:52:23;0.45;;;0.43;;
5871;SDS011;2962;51.312;7.378;2023-02-26T09:55:04;3.22;;;0.60;;
5871;SDS011;2962;51.312;7.378;2023-02-26T09:58:03;0.95;;;0.40;;
5871;SDS011;2962;51.312;7.378;2023-02-26T10:00:36;0.95;;;0.43;;
5871;SDS011;2962;51.312;7.378;2023-02-26T10:05:56;0.98;;;0.70;;
5871;SDS011;2962;51.312;7.378;2023-02-26T10:08:32;1.63;;;0.75;;
5871;SDS011;2962;51.312;7.378;2023-02-26T10:11:04;0.70;;;0.40;;
5871;SDS011;2962;51.312;7.378;2023-02-26T10:13:41;1.27;;;0.60;;
5871;SDS011;2962;51.312;7.378;2023-02-26T10:16:14;2.67;;;0.80;;
5871;SDS011;2962;51.312;7.378;2023-02-26T10:18:47;0.40;;;0.40;;
5871;SDS011;2962;51.312;7.378;2023-02-26T10:21:25;3.40;;;0.90;;
5871;SDS011;2962;51.312;7.378;2023-02-26T10:23:57;1.10;;;0.88;;
5871;SDS011;2962;51.312;7.378;2023-02-26T10:26:40;1.20;;;0.70;;
5871;SDS011;2962;51.312;7.378;2023-02-26T10:31:58;0.50;;;0.50;;
5871;SDS011;2962;51.312;7.378;2023-02-26T10:37:13;1.40;;;1.30;;
5871;SDS011;2962;51.312;7.378;2023-02-26T10:39:47;1.70;;;0.80;;
5871;SDS011;2962;51.312;7.378;2023-02-26T10:42:42;0.70;;;0.70;;
5871;SDS011;2962;51.312;7.378;2023-02-26T10:48:05;0.90;;;0.90;;
5871;SDS011;2962;51.312;7.378;2023-02-26T10:50:42;0.87;;;0.60;;
5871;SDS011;2962;51.312;7.378;2023-02-26T10:53:13;1.23;;;0.60;;
5871;SDS011;2962;51.312;7.378;2023-02-26T10:58:38;1.53;;;0.70;;
5871;SDS011;2962;51.312;7.378;2023-02-26T11:01:04;4.03;;;0.47;;
5871;SDS011;2962;51.312;7.378;2023-02-26T11:03:38;0.93;;;0.93;;
5871;SDS011;2962;51.312;7.378;2023-02-26T11:06:06;1.63;;;0.73;;
5871;SDS011;2962;51.312;7.378;2023-02-26T11:08:34;1.33;;;0.73;;
5871;SDS011;2962;51.312;7.378;2023-02-26T11:11:07;1.80;;;1.00;;
5871;SDS011;2962;51.312;7.378;2023-02-26T11:13:33;1.53;;;1.20;;
5871;SDS011;2962;51.312;7.378;2023-02-26T11:16:03;3.53;;;0.95;;
5871;SDS011;2962;51.312;7.378;2023-02-26T11:21:05;0.77;;;0.77;;
5871;SDS011;2962;51.312;7.378;2023-02-26T11:23:32;0.90;;;0.90;;
5871;SDS011;2962;51.312;7.378;2023-02-26T11:25:59;1.07;;;0.87;;
5871;SDS011;2962;51.312;7.378;2023-02-26T11:28:32;2.73;;;1.10;;
5871;SDS011;2962;51.312;7.378;2023-02-26T11:31:04;1.67;;;1.00;;
5871;SDS011;2962;51.312;7.378;2023-02-26T11:33:35;1.30;;;0.90;;
5871;SDS011;2962;51.312;7.378;2023-02-26T11:36:02;0.73;;;0.70;;
5871;SDS011;2962;51.312;7.378;2023-02-26T11:38:33;0.80;;;0.80;;
5871;SDS011;2962;51.312;7.378;2023-02-26T11:40:59;2.20;;;0.80;;
5871;SDS011;2962;51.312;7.378;2023-02-26T11:43:32;0.80;;;0.80;;
5871;SDS011;2962;51.312;7.378;2023-02-26T11:46:03;1.00;;;1.00;;
5871;SDS011;2962;51.312;7.378;2023-02-26T11:51:07;0.83;;;0.83;;
5871;SDS011;2962;51.312;7.378;2023-02-26T11:56:13;1.43;;;1.33;;
5871;SDS011;2962;51.312;7.378;2023-02-26T11:58:50;2.00;;;1.03;;
5871;SDS011;2962;51.312;7.378;2023-02-26T12:01:19;3.60;;;1.40;;
5871;SDS011;2962;51.312;7.378;2023-02-26T12:03:47;1.70;;;0.90;;
5871;SDS011;2962;51.312;7.378;2023-02-26T12:06:16;0.90;;;0.70;;
5871;SDS011;2962;51.312;7.378;2023-02-26T12:08:43;0.77;;;0.77;;
5871;SDS011;2962;51.312;7.378;2023-02-26T12:11:29;1.10;;;1.00;;
5871;SDS011;2962;51.312;7.378;2023-02-26T12:16:59;1.27;;;1.17;;
5871;SDS011;2962;51.312;7.378;2023-02-26T12:31:02;0.60;;;0.60;;
5871;SDS011;2962;51.312;7.378;2023-02-26T12:48:14;1.07;;;0.83;;
5871;SDS011;2962;51.312;7.378;2023-02-26T12:53:41;0.87;;;0.87;;
5871;SDS011;2962;51.312;7.378;2023-02-26T12:56:26;0.77;;;0.77;;
5871;SDS011;2962;51.312;7.378;2023-02-26T12:59:03;1.15;;;0.90;;
5871;SDS011;2962;51.312;7.378;2023-02-26T13:21:32;0.80;;;0.80;;
5871;SDS011;2962;51.312;7.378;2023-02-26T13:24:03;1.30;;;1.30;;
5871;SDS011;2962;51.312;7.378;2023-02-26T13:26:35;3.20;;;1.27;;
5871;SDS011;2962;51.312;7.378;2023-02-26T13:29:14;0.80;;;0.80;;
5871;SDS011;2962;51.312;7.378;2023-02-26T13:31:47;0.70;;;0.70;;
5871;SDS011;2962;51.312;7.378;2023-02-26T13:34:20;1.93;;;1.43;;
5871;SDS011;2962;51.312;7.378;2023-02-26T13:37:00;0.87;;;0.70;;
5871;SDS011;2962;51.312;7.378;2023-02-26T13:39:51;1.00;;;1.00;;
5871;SDS011;2962;51.312;7.378;2023-02-26T13:42:28;0.50;;;0.50;;
5871;SDS011;2962;51.312;7.378;2023-02-26T13:55:50;0.83;;;0.80;;
5871;SDS011;2962;51.312;7.378;2023-02-26T13:58:27;1.00;;;0.90;;
5871;SDS011;2962;51.312;7.378;2023-02-26T14:01:14;0.87;;;0.87;;
5871;SDS011;2962;51.312;7.378;2023-02-26T14:08:48;3.17;;;1.10;;
5871;SDS011;2962;51.312;7.378;2023-02-26T14:13:40;3.53;;;1.00;;
5871;SDS011;2962;51.312;7.378;2023-02-26T14:23:57;1.10;;;0.90;;
5871;SDS011;2962;51.312;7.378;2023-02-26T14:26:26;0.93;;;0.93;;
5871;SDS011;2962;51.312;7.378;2023-02-26T14:28:56;1.37;;;0.83;;
5871;SDS011;2962;51.312;7.378;2023-02-26T14:34:30;1.10;;;1.10;;
5871;SDS011;2962;51.312;7.378;2023-02-26T14:37:00;0.73;;;0.73;;
5871;SDS011;2962;51.312;7.378;2023-02-26T14:39:41;2.10;;;1.30;;
5871;SDS011;2962;51.312;7.378;2023-02-26T14:42:11;0.87;;;0.87;;
5871;SDS011;2962;51.312;7.378;2023-02-26T14:44:44;1.47;;;1.37;;
5871;SDS011;2962;51.312;7.378;2023-02-26T14:47:13;1.20;;;1.20;;
5871;SDS011;2962;51.312;7.378;2023-02-26T14:49:42;1.30;;;1.30;;
5871;SDS011;2962;51.312;7.378;2023-02-26T15:01:05;2.60;;;1.07;;
5871;SDS011;2962;51.312;7.378;2023-02-26T15:06:41;1.33;;;1.33;;
5871;SDS011;2962;51.312;7.378;2023-02-26T15:18:15;0.70;;;0.70;;
5871;SDS011;2962;51.312;7.378;2023-02-26T15:24:00;0.70;;;0.70;;
5871;SDS011;2962;51.312;7.378;2023-02-26T15:26:28;1.20;;;1.10;;
5871;SDS011;2962;51.312;7.378;2023-02-26T15:28:58;3.30;;;1.10;;
5871;SDS011;2962;51.312;7.378;2023-02-26T15:31:28;2.03;;;1.37;;
5871;SDS011;2962;51.312;7.378;2023-02-26T15:34:00;1.43;;;1.43;;
5871;SDS011;2962;51.312;7.378;2023-02-26T15:36:27;1.13;;;1.13;;
5871;SDS011;2962;51.312;7.378;2023-02-26T15:38:55;1.13;;;1.10;;
5871;SDS011;2962;51.312;7.378;2023-02-26T15:41:24;3.00;;;2.10;;
5871;SDS011;2962;51.312;7.378;2023-02-26T15:44:01;1.20;;;1.20;;
5871;SDS011;2962;51.312;7.378;2023-02-26T15:46:35;1.40;;;0.90;;
5871;SDS011;2962;51.312;7.378;2023-02-26T15:49:11;2.33;;;0.80;;
5871;SDS011;2962;51.312;7.378;2023-02-26T15:51:41;0.70;;;0.70;;
5871;SDS011;2962;51.312;7.378;2023-02-26T15:54:10;0.97;;;0.97;;
5871;SDS011;2962;51.312;7.378;2023-02-26T15:56:41;1.17;;;1.10;;
5871;SDS011;2962;51.312;7.378;2023-02-26T15:59:08;0.50;;;0.50;;
5871;SDS011;2962;51.312;7.378;2023-02-26T16:01:38;1.70;;;0.70;;
5871;SDS011;2962;51.312;7.378;2023-02-26T16:04:06;4.03;;;0.90;;
5871;SDS011;2962;51.312;7.378;2023-02-26T16:06:37;1.07;;;0.90;;
5871;SDS011;2962;51.312;7.378;2023-02-26T16:09:07;1.27;;;1.10;;
5871;SDS011;2962;51.312;7.378;2023-02-26T16:11:39;1.10;;;0.80;;
5871;SDS011;2962;51.312;7.378;2023-02-26T16:14:07;1.70;;;0.90;;
5871;SDS011;2962;51.312;7.378;2023-02-26T16:16:42;1.27;;;0.90;;
5871;SDS011;2962;51.312;7.378;2023-02-26T16:19:12;0.93;;;0.90;;
5871;SDS011;2962;51.312;7.378;2023-02-26T16:21:39;1.47;;;1.47;;
5871;SDS011;2962;51.312;7.378;2023-02-26T16:24:07;1.20;;;1.20;;
5871;SDS011;2962;51.312;7.378;2023-02-26T16:26:40;1.20;;;1.20;;
5871;SDS011;2962;51.312;7.378;2023-02-26T16:29:16;1.40;;;1.30;;
5871;SDS011;2962;51.312;7.378;2023-02-26T16:31:44;1.30;;;1.30;;
5871;SDS011;2962;51.312;7.378;2023-02-26T16:39:56;1.37;;;1.37;;
5871;SDS011;2962;51.312;7.378;2023-02-26T16:42:32;0.80;;;0.80;;
5871;SDS011;2962;51.312;7.378;2023-02-26T16:45:15;2.13;;;1.07;;
5871;SDS011;2962;51.312;7.378;2023-02-26T16:48:17;2.63;;;0.83;;
5871;SDS011;2962;51.312;7.378;2023-02-26T16:50:49;1.40;;;0.80;;
5871;SDS011;2962;51.312;7.378;2023-02-26T16:53:19;0.83;;;0.83;;
5871;SDS011;2962;51.312;7.378;2023-02-26T16:55:50;1.10;;;1.10;;
5871;SDS011;2962;51.312;7.378;2023-02-26T16:58:17;1.40;;;1.08;;
5871;SDS011;2962;51.312;7.378;2023-02-26T17:00:45;0.90;;;0.90;;
5871;SDS011;2962;51.312;7.378;2023-02-26T17:03:18;1.10;;;1.10;;
5871;SDS011;2962;51.312;7.378;2023-02-26T17:05:53;2.30;;;0.82;;
5871;SDS011;2962;51.312;7.378;2023-02-26T17:08:30;1.10;;;1.10;;
5871;SDS011;2962;51.312;7.378;2023-02-26T17:11:06;2.85;;;2.08;;
5871;SDS011;2962;51.312;7.378;2023-02-26T17:13:33;5.10;;;2.50;;
5871;SDS011;2962;51.312;7.378;2023-02-26T17:16:02;4.55;;;3.58;;
5871;SDS011;2962;51.312;7.378;2023-02-26T17:18:34;4.53;;;2.80;;
5871;SDS011;2962;51.312;7.378;2023-02-26T17:20:59;2.13;;;2.13;;
5871;SDS011;2962;51.312;7.378;2023-02-26T17:23:29;1.08;;;1.00;;
5871;SDS011;2962;51.312;7.378;2023-02-26T17:25:57;0.80;;;0.80;;
5871;SDS011;2962;51.312;7.378;2023-02-26T17:28:26;2.05;;;1.08;;
5871;SDS011;2962;51.312;7.378;2023-02-26T17:30:55;0.68;;;0.68;;
5871;SDS011;2962;51.312;7.378;2023-02-26T17:33:20;1.70;;;0.97;;
5871;SDS011;2962;51.312;7.378;2023-02-26T17:35:45;2.20;;;0.80;;
5871;SDS011;2962;51.312;7.378;2023-02-26T17:38:12;1.60;;;1.03;;
5871;SDS011;2962;51.312;7.378;2023-02-26T17:40:40;1.08;;;1.02;;
5871;SDS011;2962;51.312;7.378;2023-02-26T17:43:07;1.10;;;1.00;;
5871;SDS011;2962;51.312;7.378;2023-02-26T17:45:34;1.20;;;1.20;;
5871;SDS011;2962;51.312;7.378;2023-02-26T17:48:00;1.10;;;0.80;;
5871;SDS011;2962;51.312;7.378;2023-02-26T17:53:14;1.23;;;1.23;;
5871;SDS011;2962;51.312;7.378;2023-02-26T17:55:40;1.38;;;1.25;;
5871;SDS011;2962;51.312;7.378;2023-02-26T17:58:06;1.43;;;1.43;;
5871;SDS011;2962;51.312;7.378;2023-02-26T18:00:37;1.50;;;1.40;;
5871;SDS011;2962;51.312;7.378;2023-02-26T18:03:05;1.65;;;1.65;;
5871;SDS011;2962;51.312;7.378;2023-02-26T18:05:31;1.53;;;1.30;;
5871;SDS011;2962;51.312;7.378;2023-02-26T18:08:02;1.60;;;1.60;;
5871;SDS011;2962;51.312;7.378;2023-02-26T18:10:27;2.20;;;2.10;;
5871;SDS011;2962;51.312;7.378;2023-02-26T18:12:52;1.70;;;1.70;;
5871;SDS011;2962;51.312;7.378;2023-02-26T18:15:18;1.70;;;1.60;;
5871;SDS011;2962;51.312;7.378;2023-02-26T18:17:43;1.73;;;1.63;;
5871;SDS011;2962;51.312;7.378;2023-02-26T18:20:18;1.70;;;1.70;;
5871;SDS011;2962;51.312;7.378;2023-02-26T18:22:46;1.65;;;1.55;;
5871;SDS011;2962;51.312;7.378;2023-02-26T18:25:12;1.90;;;1.80;;
5871;SDS011;2962;51.312;7.378;2023-02-26T18:27:38;3.33;;;3.03;;
5871;SDS011;2962;51.312;7.378;2023-02-26T18:30:03;5.90;;;2.87;;
5871;SDS011;2962;51.312;7.378;2023-02-26T18:32:29;2.27;;;2.17;;
5871;SDS011;2962;51.312;7.378;2023-02-26T18:34:54;2.67;;;2.17;;
5871;SDS011;2962;51.312;7.378;2023-02-26T18:37:20;7.60;;;1.70;;
5871;SDS011;2962;51.312;7.378;2023-02-26T18:39:47;1.92;;;1.55;;